createdAt,value
2022-10-15T00:00:16.509Z,373
2022-10-15T00:01:17.967Z,378
2022-10-15T00:02:17.680Z,379
2022-10-15T00:03:17.067Z,381
2022-10-15T00:04:17.314Z,366
2022-10-15T00:05:17.296Z,367
2022-10-15T00:06:16.598Z,370
2022-10-15T00:07:17.106Z,365
2022-10-15T00:08:17.274Z,364
2022-10-15T00:09:18.509Z,367
2022-10-15T00:11:16.878Z,360
2022-10-15T00:12:16.883Z,356
2022-10-15T00:13:17.459Z,372
2022-10-15T00:14:17.081Z,368
2022-10-15T00:15:16.877Z,363
2022-10-15T00:16:17.323Z,358
2022-10-15T00:17:16.935Z,356
2022-10-15T00:18:16.748Z,360
2022-10-15T00:19:17.253Z,362
2022-10-15T00:20:16.974Z,360
2022-10-15T00:21:17.162Z,375
2022-10-15T00:22:16.842Z,369
2022-10-15T00:23:17.221Z,358
2022-10-15T00:25:16.889Z,348
2022-10-15T00:26:17.628Z,354
2022-10-15T00:27:17.573Z,362
2022-10-15T00:28:17.177Z,361
2022-10-15T00:29:17.737Z,359
2022-10-15T00:30:17.267Z,351
2022-10-15T00:31:16.383Z,350
2022-10-15T00:32:18.071Z,352
2022-10-15T00:33:17.584Z,357
2022-10-15T00:34:16.864Z,355
2022-10-15T00:36:17.083Z,345
2022-10-15T00:37:16.854Z,344
2022-10-15T00:38:17.546Z,354
2022-10-15T00:39:16.830Z,345
2022-10-15T00:40:21.348Z,336
2022-10-15T00:41:17.001Z,339
2022-10-15T00:42:17.599Z,348
2022-10-15T00:43:16.614Z,352
2022-10-15T00:45:16.940Z,351
2022-10-15T00:46:16.801Z,343
2022-10-15T00:47:17.294Z,353
2022-10-15T00:48:17.006Z,358
2022-10-15T00:49:16.290Z,346
2022-10-15T00:50:17.093Z,344
2022-10-15T00:51:16.819Z,338
2022-10-15T00:52:16.085Z,346
2022-10-15T00:53:17.433Z,338
2022-10-15T00:54:16.676Z,342
2022-10-15T00:55:16.249Z,353
2022-10-15T00:56:16.981Z,340
2022-10-15T00:57:16.222Z,366
2022-10-15T00:58:18.399Z,353
2022-10-15T00:59:16.666Z,349
2022-10-15T01:00:16.616Z,341
2022-10-15T01:01:17.676Z,343
2022-10-15T01:02:16.762Z,349
2022-10-15T01:03:16.541Z,345
2022-10-15T01:04:17.260Z,342
2022-10-15T01:05:16.728Z,344
2022-10-15T01:06:16.299Z,346
2022-10-15T01:08:16.411Z,351
2022-10-15T01:09:17.204Z,341
2022-10-15T01:10:16.911Z,351
2022-10-15T01:11:16.182Z,343
2022-10-15T01:12:16.897Z,344
2022-10-15T01:13:16.554Z,352
2022-10-15T01:15:16.868Z,357
2022-10-15T01:16:16.598Z,352
2022-10-15T01:17:15.997Z,346
2022-10-15T01:18:16.874Z,344
2022-10-15T01:19:16.533Z,339
2022-10-15T01:20:15.875Z,338
2022-10-15T01:21:16.772Z,339
2022-10-15T01:22:15.958Z,347
2022-10-15T01:23:16.513Z,343
2022-10-15T01:24:16.804Z,352
2022-10-15T01:26:16.183Z,357
2022-10-15T01:27:16.640Z,350
2022-10-15T01:28:16.016Z,348
2022-10-15T01:29:16.379Z,349
2022-10-15T01:30:16.401Z,354
2022-10-15T01:31:16.668Z,350
2022-10-15T01:32:15.897Z,352
2022-10-15T01:33:16.599Z,351
2022-10-15T01:35:15.976Z,342
2022-10-15T01:36:16.370Z,345
2022-10-15T01:37:16.285Z,340
2022-10-15T01:38:15.730Z,347
2022-10-15T01:39:16.356Z,352
2022-10-15T01:41:16.862Z,350
2022-10-15T01:43:16.393Z,356
2022-10-15T01:44:16.728Z,358
2022-10-15T01:45:16.650Z,352
2022-10-15T01:46:16.234Z,357
2022-10-15T01:47:16.831Z,353
2022-10-15T01:48:16.425Z,347
2022-10-15T01:49:17.190Z,356
2022-10-15T01:50:16.786Z,354
2022-10-15T01:51:16.696Z,348
2022-10-15T01:52:17.378Z,347
2022-10-15T01:53:17.463Z,355
2022-10-15T01:54:16.416Z,352
2022-10-15T01:55:16.770Z,356
2022-10-15T01:56:16.418Z,351
2022-10-15T01:57:16.048Z,357
2022-10-15T01:58:16.599Z,361
2022-10-15T01:59:16.965Z,362
2022-10-15T02:00:15.742Z,357
2022-10-15T02:01:16.951Z,351
2022-10-15T02:02:16.655Z,352
2022-10-15T02:03:15.766Z,358
2022-10-15T02:04:22.113Z,348
2022-10-15T02:05:16.800Z,359
2022-10-15T02:06:16.033Z,357
2022-10-15T02:07:16.286Z,354
2022-10-15T02:08:15.885Z,360
2022-10-15T02:09:17.114Z,356
2022-10-15T02:10:16.639Z,344
2022-10-15T02:11:16.804Z,353
2022-10-15T02:12:16.698Z,348
2022-10-15T02:13:17.266Z,344
2022-10-15T02:14:16.472Z,347
2022-10-15T02:15:17.120Z,357
2022-10-15T02:16:16.000Z,367
2022-10-15T02:17:15.762Z,352
2022-10-15T02:18:16.912Z,356
2022-10-15T02:19:16.465Z,358
2022-10-15T02:20:15.788Z,360
2022-10-15T02:21:16.609Z,350
2022-10-15T02:22:16.568Z,361
2022-10-15T02:23:16.382Z,358
2022-10-15T02:24:16.783Z,360
2022-10-15T02:26:17.095Z,344
2022-10-15T02:27:16.748Z,358
2022-10-15T02:28:16.890Z,341
2022-10-15T02:30:17.255Z,359
2022-10-15T02:31:16.822Z,349
2022-10-15T02:32:17.638Z,346
2022-10-15T02:33:16.925Z,356
2022-10-15T02:34:17.063Z,357
2022-10-15T02:35:17.139Z,359
2022-10-15T02:36:16.842Z,355
2022-10-15T02:37:16.672Z,369
2022-10-15T02:38:18.380Z,367
2022-10-15T02:39:17.428Z,361
2022-10-15T02:40:17.251Z,359
2022-10-15T02:41:17.803Z,354
2022-10-15T02:42:17.236Z,345
2022-10-15T02:43:17.194Z,355
2022-10-15T02:44:17.033Z,350
2022-10-15T02:45:17.096Z,382
2022-10-15T02:46:16.498Z,353
2022-10-15T02:47:16.981Z,348
2022-10-15T02:48:17.194Z,354
2022-10-15T02:49:16.707Z,360
2022-10-15T02:50:16.958Z,354
2022-10-15T02:51:17.110Z,363
2022-10-15T02:52:16.449Z,353
2022-10-15T02:54:16.603Z,347
2022-10-15T02:55:16.898Z,351
2022-10-15T02:56:17.412Z,353
2022-10-15T02:57:17.223Z,354
2022-10-15T02:58:20.268Z,353
2022-10-15T02:59:17.884Z,364
2022-10-15T03:00:16.798Z,370
2022-10-15T03:01:17.412Z,362
2022-10-15T03:02:23.557Z,359
2022-10-15T03:03:17.086Z,352
2022-10-15T03:04:16.248Z,368
2022-10-15T03:05:17.193Z,358
2022-10-15T03:06:16.397Z,364
2022-10-15T03:07:17.702Z,372
2022-10-15T03:08:17.465Z,368
2022-10-15T03:09:16.886Z,372
2022-10-15T03:10:17.431Z,377
2022-10-15T03:11:17.390Z,374
2022-10-15T03:12:16.570Z,359
2022-10-15T03:13:17.886Z,352
2022-10-15T03:14:17.138Z,343
2022-10-15T03:15:17.551Z,349
2022-10-15T03:16:17.523Z,366
2022-10-15T03:17:17.006Z,364
2022-10-15T03:18:16.716Z,358
2022-10-15T03:19:17.374Z,355
2022-10-15T03:20:17.293Z,364
2022-10-15T03:21:16.599Z,363
2022-10-15T03:22:16.980Z,374
2022-10-15T03:23:17.374Z,371
2022-10-15T03:24:16.582Z,364
2022-10-15T03:25:17.392Z,365
2022-10-15T03:26:17.269Z,367
2022-10-15T03:27:18.277Z,365
2022-10-15T03:28:17.247Z,375
2022-10-15T03:29:16.684Z,379
2022-10-15T03:30:17.023Z,384
2022-10-15T03:31:17.577Z,383
2022-10-15T03:32:16.812Z,376
2022-10-15T03:33:19.007Z,363
2022-10-15T03:34:17.330Z,366
2022-10-15T03:35:16.333Z,373
2022-10-15T03:36:17.167Z,376
2022-10-15T03:37:16.764Z,375
2022-10-15T03:38:16.464Z,358
2022-10-15T03:39:17.518Z,365
2022-10-15T03:40:19.513Z,384
2022-10-15T03:41:17.620Z,372
2022-10-15T03:42:17.607Z,367
2022-10-15T03:43:17.113Z,371
2022-10-15T03:44:17.590Z,373
2022-10-15T03:45:17.110Z,365
2022-10-15T03:46:20.780Z,361
2022-10-15T03:47:17.669Z,369
2022-10-15T03:48:17.130Z,365
2022-10-15T03:49:17.200Z,373
2022-10-15T03:50:17.423Z,364
2022-10-15T03:51:21.992Z,357
2022-10-15T03:52:16.562Z,354
2022-10-15T03:53:17.351Z,361
2022-10-15T03:54:16.856Z,364
2022-10-15T03:55:16.889Z,370
2022-10-15T03:57:17.190Z,359
2022-10-15T03:58:16.206Z,372
2022-10-15T03:59:17.274Z,378
2022-10-15T04:00:16.610Z,372
2022-10-15T04:01:17.463Z,375
2022-10-15T04:02:17.049Z,366
2022-10-15T04:03:16.619Z,359
2022-10-15T04:04:17.080Z,350
2022-10-15T04:05:16.535Z,362
2022-10-15T04:06:16.478Z,372
2022-10-15T04:07:17.116Z,367
2022-10-15T04:09:16.397Z,371
2022-10-15T04:10:16.913Z,368
2022-10-15T04:11:16.621Z,359
2022-10-15T04:12:15.984Z,357
2022-10-15T04:13:16.873Z,355
2022-10-15T04:14:16.706Z,351
2022-10-15T04:15:16.406Z,357
2022-10-15T04:16:16.869Z,373
2022-10-15T04:17:17.762Z,344
2022-10-15T04:18:17.362Z,350
2022-10-15T04:20:17.000Z,352
2022-10-15T04:21:17.412Z,356
2022-10-15T04:22:16.627Z,352
2022-10-15T04:23:16.797Z,354
2022-10-15T04:24:17.272Z,350
2022-10-15T04:25:16.983Z,349
2022-10-15T04:26:16.176Z,358
2022-10-15T04:27:17.427Z,370
2022-10-15T04:28:16.110Z,354
2022-10-15T04:30:17.055Z,348
2022-10-15T04:31:16.373Z,349
2022-10-15T04:32:16.077Z,353
2022-10-15T04:33:17.130Z,356
2022-10-15T04:34:16.531Z,350
2022-10-15T04:35:16.432Z,370
2022-10-15T04:37:16.927Z,366
2022-10-15T04:39:20.091Z,356
2022-10-15T04:40:16.519Z,370
2022-10-15T04:41:15.892Z,373
2022-10-15T04:42:16.398Z,371
2022-10-15T04:43:16.312Z,359
2022-10-15T04:44:15.982Z,364
2022-10-15T04:45:16.733Z,357
2022-10-15T04:46:16.343Z,363
2022-10-15T04:47:17.541Z,362
2022-10-15T04:48:15.763Z,360
2022-10-15T04:49:16.608Z,356
2022-10-15T04:50:16.899Z,348
2022-10-15T04:51:16.797Z,349
2022-10-15T04:52:16.283Z,348
2022-10-15T04:53:22.064Z,355
2022-10-15T04:54:16.646Z,365
2022-10-15T04:56:16.640Z,360
2022-10-15T04:57:16.302Z,353
2022-10-15T04:58:15.958Z,356
2022-10-15T04:59:16.831Z,367
2022-10-15T05:00:15.991Z,358
2022-10-15T05:01:15.877Z,344
2022-10-15T05:02:17.132Z,352
2022-10-15T05:03:16.471Z,365
2022-10-15T05:04:15.148Z,366
2022-10-15T05:05:16.314Z,356
2022-10-15T05:06:16.359Z,357
2022-10-15T05:07:16.058Z,362
2022-10-15T05:08:16.681Z,369
2022-10-15T05:09:16.473Z,365
2022-10-15T05:10:15.944Z,369
2022-10-15T05:11:16.772Z,361
2022-10-15T05:12:16.543Z,347
2022-10-15T05:13:16.443Z,350
2022-10-15T05:14:16.700Z,345
2022-10-15T05:15:16.323Z,353
2022-10-15T05:16:15.738Z,367
2022-10-15T05:17:16.473Z,368
2022-10-15T05:18:16.015Z,370
2022-10-15T05:19:15.936Z,379
2022-10-15T05:20:16.006Z,382
2022-10-15T05:21:16.140Z,372
2022-10-15T05:22:16.198Z,366
2022-10-15T05:24:15.827Z,368
2022-10-15T05:25:16.812Z,370
2022-10-15T05:26:15.877Z,363
2022-10-15T05:27:16.406Z,366
2022-10-15T05:28:16.510Z,371
2022-10-15T05:29:16.558Z,364
2022-10-15T05:30:16.995Z,397
2022-10-15T05:31:24.377Z,396
2022-10-15T05:32:16.131Z,372
2022-10-15T05:33:16.579Z,364
2022-10-15T05:34:16.480Z,371
2022-10-15T05:35:16.243Z,367
2022-10-15T05:36:16.479Z,364
2022-10-15T05:37:16.383Z,366
2022-10-15T05:38:16.194Z,365
2022-10-15T05:39:16.987Z,370
2022-10-15T05:40:19.617Z,373
2022-10-15T05:41:16.778Z,372
2022-10-15T05:42:15.910Z,373
2022-10-15T05:43:17.340Z,360
2022-10-15T05:44:15.702Z,364
2022-10-15T05:45:16.745Z,380
2022-10-15T05:46:16.210Z,378
2022-10-15T05:47:16.681Z,372
2022-10-15T05:48:16.999Z,383
2022-10-15T05:49:16.539Z,372
2022-10-15T05:50:16.427Z,373
2022-10-15T05:51:16.500Z,375
2022-10-15T05:52:21.209Z,370
2022-10-15T05:53:16.986Z,363
2022-10-15T05:55:17.681Z,370
2022-10-15T05:56:16.570Z,377
2022-10-15T05:57:17.496Z,376
2022-10-15T05:58:17.573Z,366
2022-10-15T05:59:17.275Z,362
2022-10-15T06:00:17.390Z,367
2022-10-15T06:01:17.239Z,370
2022-10-15T06:02:16.672Z,373
2022-10-15T06:03:17.394Z,381
2022-10-15T06:04:16.952Z,374
2022-10-15T06:05:16.972Z,365
2022-10-15T06:06:17.627Z,375
2022-10-15T06:07:16.987Z,393
2022-10-15T06:08:16.968Z,375
2022-10-15T06:09:17.008Z,383
2022-10-15T06:10:16.174Z,380
2022-10-15T06:11:17.397Z,381
2022-10-15T06:12:17.110Z,385
2022-10-15T06:13:17.770Z,384
2022-10-15T06:14:15.889Z,386
2022-10-15T06:16:21.154Z,387
2022-10-15T06:17:16.731Z,389
2022-10-15T06:18:17.238Z,398
2022-10-15T06:19:17.320Z,393
2022-10-15T06:20:20.543Z,385
2022-10-15T06:21:17.392Z,390
2022-10-15T06:22:17.396Z,384
2022-10-15T06:23:17.447Z,379
2022-10-15T06:24:17.649Z,372
2022-10-15T06:25:16.951Z,374
2022-10-15T06:26:16.309Z,407
2022-10-15T06:27:17.033Z,376
2022-10-15T06:28:15.968Z,380
2022-10-15T06:29:17.595Z,391
2022-10-15T06:30:16.966Z,393
2022-10-15T06:31:17.593Z,385
2022-10-15T06:32:16.890Z,394
2022-10-15T06:33:18.210Z,382
2022-10-15T06:34:18.180Z,369
2022-10-15T06:35:17.247Z,375
2022-10-15T06:37:17.683Z,377
2022-10-15T06:38:17.424Z,387
2022-10-15T06:39:18.128Z,388
2022-10-15T06:40:17.362Z,387
2022-10-15T06:41:17.546Z,381
2022-10-15T06:43:17.405Z,376
2022-10-15T06:44:16.732Z,380
2022-10-15T06:45:19.503Z,384
2022-10-15T06:46:17.439Z,390
2022-10-15T06:48:16.033Z,386
2022-10-15T06:49:18.025Z,382
2022-10-15T06:50:17.368Z,378
2022-10-15T06:51:17.182Z,380
2022-10-15T06:52:17.408Z,383
2022-10-15T06:53:18.023Z,381
2022-10-15T06:54:17.512Z,379
2022-10-15T06:55:17.292Z,370
2022-10-15T06:56:18.206Z,375
2022-10-15T06:57:17.552Z,378
2022-10-15T06:58:17.131Z,381
2022-10-15T06:59:18.055Z,374
2022-10-15T07:00:17.031Z,376
2022-10-15T07:01:17.361Z,383
2022-10-15T07:02:17.593Z,380
2022-10-15T07:03:17.291Z,392
2022-10-15T07:04:17.126Z,380
2022-10-15T07:05:17.906Z,375
2022-10-15T07:06:17.665Z,370
2022-10-15T07:07:17.090Z,369
2022-10-15T07:08:23.984Z,364
2022-10-15T07:09:17.153Z,360
2022-10-15T07:10:16.991Z,362
2022-10-15T07:11:17.966Z,368
2022-10-15T07:12:16.948Z,357
2022-10-15T07:13:17.795Z,361
2022-10-15T07:14:17.321Z,357
2022-10-15T07:15:18.373Z,361
2022-10-15T07:16:17.064Z,365
2022-10-15T07:17:20.932Z,360
2022-10-15T07:18:17.547Z,370
2022-10-15T07:19:17.305Z,369
2022-10-15T07:20:20.261Z,366
2022-10-15T07:21:17.398Z,362
2022-10-15T07:22:17.155Z,337
2022-10-15T07:23:16.669Z,349
2022-10-15T07:24:17.297Z,350
2022-10-15T07:25:18.594Z,358
2022-10-15T07:26:17.251Z,361
2022-10-15T07:27:23.831Z,355
2022-10-15T07:28:16.923Z,352
2022-10-15T07:29:16.839Z,357
2022-10-15T07:30:17.253Z,367
2022-10-15T07:31:17.233Z,362
2022-10-15T07:32:16.595Z,354
2022-10-15T07:33:17.712Z,352
2022-10-15T07:34:17.590Z,357
2022-10-15T07:35:17.064Z,363
2022-10-15T07:36:16.988Z,356
2022-10-15T07:37:16.976Z,361
2022-10-15T07:38:16.451Z,358
2022-10-15T07:39:17.563Z,355
2022-10-15T07:40:17.011Z,354
2022-10-15T07:41:16.233Z,353
2022-10-15T07:42:18.946Z,354
2022-10-15T07:44:16.638Z,360
2022-10-15T07:45:17.374Z,363
2022-10-15T07:46:16.692Z,372
2022-10-15T07:47:16.284Z,375
2022-10-15T07:48:16.577Z,370
2022-10-15T07:50:16.986Z,373
2022-10-15T07:52:17.138Z,356
2022-10-15T07:53:18.177Z,364
2022-10-15T07:54:16.460Z,366
2022-10-15T07:55:17.433Z,359
2022-10-15T07:56:16.767Z,364
2022-10-15T07:57:16.591Z,371
2022-10-15T07:58:17.090Z,357
2022-10-15T07:59:16.532Z,364
2022-10-15T08:00:16.208Z,353
2022-10-15T08:01:16.989Z,354
2022-10-15T08:02:16.862Z,370
2022-10-15T08:04:16.819Z,368
2022-10-15T08:05:16.432Z,372
2022-10-15T08:06:16.227Z,369
2022-10-15T08:07:16.955Z,377
2022-10-15T08:08:16.362Z,376
2022-10-15T08:09:16.232Z,382
2022-10-15T08:10:16.806Z,386
2022-10-15T08:11:16.307Z,377
2022-10-15T08:12:15.949Z,371
2022-10-15T08:13:16.572Z,374
2022-10-15T08:14:15.934Z,382
2022-10-15T08:15:17.137Z,386
2022-10-15T08:16:16.528Z,375
2022-10-15T08:17:15.939Z,367
2022-10-15T08:18:17.001Z,366
2022-10-15T08:19:16.636Z,371
2022-10-15T08:20:16.449Z,370
2022-10-15T08:21:17.063Z,375
2022-10-15T08:22:16.532Z,372
2022-10-15T08:23:16.535Z,383
2022-10-15T08:24:16.777Z,381
2022-10-15T08:25:16.478Z,391
2022-10-15T08:26:16.895Z,393
2022-10-15T08:27:16.621Z,381
2022-10-15T08:29:16.604Z,391
2022-10-15T08:30:16.868Z,373
2022-10-15T08:31:18.549Z,363
2022-10-15T08:32:16.198Z,344
2022-10-15T08:33:17.016Z,360
2022-10-15T08:34:16.302Z,357
2022-10-15T08:35:16.183Z,354
2022-10-15T08:36:17.150Z,348
2022-10-15T08:37:16.581Z,338
2022-10-15T08:39:16.693Z,342
2022-10-15T08:40:16.408Z,345
2022-10-15T08:41:16.321Z,350
2022-10-15T08:42:16.459Z,353
2022-10-15T08:43:17.028Z,354
2022-10-15T08:44:16.390Z,345
2022-10-15T08:45:17.180Z,335
2022-10-15T08:47:16.389Z,349
2022-10-15T08:48:16.712Z,338
2022-10-15T08:49:15.942Z,340
2022-10-15T08:50:23.032Z,348
2022-10-15T08:51:16.395Z,350
2022-10-15T08:52:16.774Z,357
2022-10-15T08:53:16.664Z,360
2022-10-15T08:54:16.340Z,356
2022-10-15T08:55:16.831Z,354
2022-10-15T08:56:16.958Z,349
2022-10-15T08:57:16.479Z,341
2022-10-15T08:59:17.436Z,334
2022-10-15T09:01:16.990Z,332
2022-10-15T09:02:16.688Z,336
2022-10-15T09:03:16.630Z,337
2022-10-15T09:04:16.876Z,349
2022-10-15T09:05:16.803Z,352
2022-10-15T09:06:17.241Z,347
2022-10-15T09:07:16.957Z,339
2022-10-15T09:08:16.707Z,346
2022-10-15T09:09:17.559Z,341
2022-10-15T09:10:17.070Z,342
2022-10-15T09:11:17.672Z,337
2022-10-15T09:13:21.810Z,342
2022-10-15T09:14:17.234Z,357
2022-10-15T09:15:17.328Z,351
2022-10-15T09:16:17.093Z,346
2022-10-15T09:17:17.775Z,337
2022-10-15T09:18:17.279Z,342
2022-10-15T09:19:16.723Z,338
2022-10-15T09:20:17.720Z,336
2022-10-15T09:21:17.268Z,332
2022-10-15T09:22:17.476Z,333
2022-10-15T09:23:17.640Z,336
2022-10-15T09:24:17.131Z,337
2022-10-15T09:25:16.921Z,328
2022-10-15T09:26:17.086Z,338
2022-10-15T09:27:17.082Z,340
2022-10-15T09:29:17.791Z,339
2022-10-15T09:31:17.649Z,348
2022-10-15T09:32:17.469Z,350
2022-10-15T09:33:16.938Z,352
2022-10-15T09:34:17.215Z,345
2022-10-15T09:35:19.883Z,343
2022-10-15T09:36:17.243Z,341
2022-10-15T09:37:18.328Z,340
2022-10-15T09:38:17.192Z,338
2022-10-15T09:39:16.610Z,341
2022-10-15T09:40:18.333Z,342
2022-10-15T09:41:17.363Z,340
2022-10-15T09:42:17.454Z,342
2022-10-15T09:43:17.681Z,333
2022-10-15T09:44:19.742Z,338
2022-10-15T09:45:17.287Z,340
2022-10-15T09:46:17.586Z,330
2022-10-15T09:47:17.412Z,329
2022-10-15T09:48:17.010Z,327
2022-10-15T09:49:17.782Z,340
2022-10-15T09:51:16.833Z,343
2022-10-15T09:52:17.461Z,330
2022-10-15T09:53:17.365Z,336
2022-10-15T09:54:16.707Z,349
2022-10-15T09:55:17.788Z,341
2022-10-15T09:56:16.894Z,340
2022-10-15T09:57:17.528Z,343
2022-10-15T09:58:17.095Z,344
2022-10-15T09:59:18.054Z,342
2022-10-15T10:00:17.057Z,335
2022-10-15T10:01:17.447Z,329
2022-10-15T10:02:17.507Z,336
2022-10-15T10:03:17.656Z,333
2022-10-15T10:04:17.948Z,328
2022-10-15T10:05:17.532Z,333
2022-10-15T10:06:16.924Z,332
2022-10-15T10:07:17.416Z,333
2022-10-15T10:08:18.076Z,339
2022-10-15T10:09:17.143Z,333
2022-10-15T10:10:17.382Z,338
2022-10-15T10:11:17.152Z,330
2022-10-15T10:12:16.860Z,301
2022-10-15T10:13:18.393Z,354
2022-10-15T10:14:16.996Z,344
2022-10-15T10:15:18.389Z,338
2022-10-15T10:16:17.793Z,335
2022-10-15T10:17:17.164Z,336
2022-10-15T10:18:16.810Z,346
2022-10-15T10:19:17.313Z,337
2022-10-15T10:20:17.067Z,329
2022-10-15T10:21:18.177Z,325
2022-10-15T10:22:16.976Z,332
2022-10-15T10:23:18.462Z,328
2022-10-15T10:25:19.394Z,326
2022-10-15T10:26:18.371Z,341
2022-10-15T10:27:17.999Z,348
2022-10-15T10:28:27.307Z,352
2022-10-15T10:29:36.684Z,334
2022-10-15T10:31:16.768Z,333
2022-10-15T10:32:17.647Z,338
2022-10-15T10:34:18.158Z,328
2022-10-15T10:35:17.282Z,333
2022-10-15T10:36:20.898Z,330
2022-10-15T10:37:17.337Z,338
2022-10-15T10:38:17.501Z,340
2022-10-15T10:39:17.469Z,343
2022-10-15T10:40:16.930Z,338
2022-10-15T10:41:17.685Z,339
2022-10-15T10:42:17.242Z,335
2022-10-15T10:43:16.604Z,328
2022-10-15T10:44:18.127Z,327
2022-10-15T10:45:21.671Z,325
2022-10-15T10:46:16.532Z,330
2022-10-15T10:47:17.139Z,336
2022-10-15T10:48:16.330Z,330
2022-10-15T10:49:17.670Z,334
2022-10-15T10:51:21.026Z,339
2022-10-15T10:52:16.964Z,346
2022-10-15T10:53:16.911Z,347
2022-10-15T10:54:16.666Z,348
2022-10-15T10:55:17.325Z,343
2022-10-15T10:56:16.438Z,340
2022-10-15T10:57:16.575Z,343
2022-10-15T10:58:17.335Z,342
2022-10-15T10:59:16.746Z,336
2022-10-15T11:00:16.164Z,342
2022-10-15T11:01:17.399Z,356
2022-10-15T11:02:22.076Z,353
2022-10-15T11:03:16.357Z,349
2022-10-15T11:04:21.356Z,347
2022-10-15T11:05:16.368Z,352
2022-10-15T11:06:16.671Z,344
2022-10-15T11:07:17.007Z,342
2022-10-15T11:08:16.249Z,350
2022-10-15T11:09:17.276Z,339
2022-10-15T11:10:16.657Z,346
2022-10-15T11:11:16.041Z,351
2022-10-15T11:12:16.957Z,353
2022-10-15T11:13:17.016Z,346
2022-10-15T11:14:16.279Z,342
2022-10-15T11:15:17.151Z,357
2022-10-15T11:16:16.765Z,332
2022-10-15T11:17:16.526Z,337
2022-10-15T11:18:16.822Z,341
2022-10-15T11:19:50.474Z,347
2022-10-15T11:20:57.778Z,340
2022-10-15T11:22:16.187Z,346
2022-10-15T11:23:16.356Z,347
2022-10-15T11:24:16.665Z,351
2022-10-15T11:25:16.401Z,339
2022-10-15T11:26:16.136Z,343
2022-10-15T11:27:27.368Z,337
2022-10-15T11:28:16.191Z,339
2022-10-15T11:29:15.948Z,342
2022-10-15T11:30:16.738Z,319
2022-10-15T11:31:16.511Z,370
2022-10-15T11:32:25.683Z,340
2022-10-15T11:33:22.081Z,341
2022-10-15T11:34:16.422Z,336
2022-10-15T11:35:48.299Z,329
2022-10-15T11:36:16.198Z,342
2022-10-15T11:37:16.070Z,340
2022-10-15T11:38:17.098Z,325
2022-10-15T11:39:16.581Z,338
2022-10-15T11:40:16.113Z,345
2022-10-15T11:41:16.993Z,347
2022-10-15T11:42:16.279Z,356
2022-10-15T11:43:15.728Z,338
2022-10-15T11:44:16.457Z,346
2022-10-15T11:45:17.109Z,347
2022-10-15T11:46:16.824Z,339
2022-10-15T11:47:16.594Z,336
2022-10-15T11:48:16.177Z,326
2022-10-15T11:49:16.839Z,333
2022-10-15T11:50:17.458Z,345
2022-10-15T11:51:16.585Z,336
2022-10-15T11:52:20.630Z,342
2022-10-15T11:53:16.643Z,344
2022-10-15T11:54:15.997Z,347
2022-10-15T11:55:16.847Z,351
2022-10-15T11:56:16.471Z,356
2022-10-15T11:57:16.069Z,364
2022-10-15T11:58:16.645Z,353
2022-10-15T11:59:16.740Z,352
2022-10-15T12:00:15.867Z,361
2022-10-15T12:01:17.095Z,350
2022-10-15T12:02:16.912Z,325
2022-10-15T12:03:16.374Z,333
2022-10-15T12:04:17.170Z,346
2022-10-15T12:05:17.171Z,352
2022-10-15T12:06:16.946Z,347
2022-10-15T12:07:16.443Z,339
2022-10-15T12:08:16.593Z,340
2022-10-15T12:09:16.577Z,352
2022-10-15T12:10:17.194Z,339
2022-10-15T12:11:16.723Z,335
2022-10-15T12:12:16.480Z,347
2022-10-15T12:14:16.811Z,339
2022-10-15T12:15:16.593Z,329
2022-10-15T12:17:16.997Z,339
2022-10-15T12:18:16.139Z,347
2022-10-15T12:20:16.832Z,349
2022-10-15T12:21:16.503Z,348
2022-10-15T12:22:17.058Z,339
2022-10-15T12:23:16.748Z,344
2022-10-15T12:24:16.519Z,350
2022-10-15T12:25:17.188Z,349
2022-10-15T12:26:16.592Z,346
2022-10-15T12:27:16.783Z,344
2022-10-15T12:28:17.423Z,349
2022-10-15T12:29:16.906Z,340
2022-10-15T12:30:17.704Z,326
2022-10-15T12:31:17.780Z,331
2022-10-15T12:32:17.298Z,337
2022-10-15T12:33:16.745Z,339
2022-10-15T12:34:17.195Z,343
2022-10-15T12:35:17.246Z,344
2022-10-15T12:36:16.878Z,340
2022-10-15T12:37:17.657Z,344
2022-10-15T12:38:16.773Z,348
2022-10-15T12:39:52.178Z,344
2022-10-15T12:40:17.456Z,341
2022-10-15T12:41:17.672Z,339
2022-10-15T12:42:18.172Z,338
2022-10-15T12:43:16.950Z,335
2022-10-15T12:44:16.656Z,348
2022-10-15T12:45:17.512Z,344
2022-10-15T12:46:16.953Z,340
2022-10-15T12:47:16.633Z,341
2022-10-15T12:48:16.872Z,346
2022-10-15T12:49:17.580Z,348
2022-10-15T12:50:17.912Z,346
2022-10-15T12:51:17.450Z,340
2022-10-15T12:53:18.016Z,341
2022-10-15T12:54:17.235Z,339
2022-10-15T12:55:17.344Z,353
2022-10-15T12:56:17.696Z,350
2022-10-15T12:57:17.373Z,338
2022-10-15T12:58:17.427Z,343
2022-10-15T12:59:17.265Z,330
2022-10-15T13:00:16.730Z,373
2022-10-15T13:01:18.169Z,350
2022-10-15T13:02:17.617Z,356
2022-10-15T13:03:16.711Z,341
2022-10-15T13:05:17.497Z,335
2022-10-15T13:06:21.804Z,327
2022-10-15T13:07:17.645Z,321
2022-10-15T13:08:17.105Z,333
2022-10-15T13:10:21.341Z,338
2022-10-15T13:11:16.984Z,341
2022-10-15T13:12:17.672Z,340
2022-10-15T13:13:17.699Z,341
2022-10-15T13:14:17.391Z,318
2022-10-15T13:15:22.006Z,358
2022-10-15T13:16:17.224Z,352
2022-10-15T13:17:17.007Z,345
2022-10-15T13:18:17.629Z,342
2022-10-15T13:19:17.545Z,328
2022-10-15T13:20:16.929Z,321
2022-10-15T13:21:18.939Z,324
2022-10-15T13:22:26.536Z,323
2022-10-15T13:23:30.737Z,335
2022-10-15T13:24:17.549Z,336
2022-10-15T13:25:17.298Z,333
2022-10-15T13:26:17.051Z,324
2022-10-15T13:27:17.319Z,322
2022-10-15T13:28:20.381Z,342
2022-10-15T13:29:16.878Z,347
2022-10-15T13:30:17.784Z,333
2022-10-15T13:31:17.014Z,330
2022-10-15T13:32:16.769Z,328
2022-10-15T13:33:17.302Z,333
2022-10-15T13:34:16.765Z,341
2022-10-15T13:35:17.460Z,331
2022-10-15T13:36:17.333Z,326
2022-10-15T13:37:17.249Z,337
2022-10-15T13:38:17.791Z,332
2022-10-15T13:39:17.511Z,327
2022-10-15T13:41:17.736Z,333
2022-10-15T13:42:17.578Z,342
2022-10-15T13:43:16.790Z,320
2022-10-15T13:44:17.400Z,344
2022-10-15T13:45:17.386Z,343
2022-10-15T13:46:17.409Z,344
2022-10-15T13:47:17.306Z,347
2022-10-15T13:49:17.133Z,336
2022-10-15T13:50:17.430Z,332
2022-10-15T13:51:17.238Z,328
2022-10-15T13:52:16.757Z,331
2022-10-15T13:53:17.847Z,329
2022-10-15T13:54:17.467Z,330
2022-10-15T13:55:17.076Z,336
2022-10-15T13:56:17.342Z,329
2022-10-15T13:57:17.257Z,324
2022-10-15T13:58:16.553Z,351
2022-10-15T13:59:17.221Z,324
2022-10-15T14:00:17.279Z,322
2022-10-15T14:01:17.184Z,327
2022-10-15T14:02:17.482Z,333
2022-10-15T14:03:16.962Z,342
2022-10-15T14:04:16.601Z,340
2022-10-15T14:05:17.487Z,345
2022-10-15T14:06:17.258Z,344
2022-10-15T14:07:17.812Z,338
2022-10-15T14:08:17.904Z,336
2022-10-15T14:09:16.991Z,334
2022-10-15T14:10:17.391Z,333
2022-10-15T14:11:17.118Z,330
2022-10-15T14:12:16.985Z,331
2022-10-15T14:13:17.939Z,325
2022-10-15T14:14:17.399Z,321
2022-10-15T14:15:16.694Z,322
2022-10-15T14:17:16.612Z,315
2022-10-15T14:18:16.414Z,322
2022-10-15T14:19:17.288Z,334
2022-10-15T14:20:32.235Z,332
2022-10-15T14:21:16.402Z,339
2022-10-15T14:22:17.468Z,331
2022-10-15T14:23:17.044Z,330
2022-10-15T14:24:16.637Z,323
2022-10-15T14:25:18.016Z,320
2022-10-15T14:26:16.955Z,322
2022-10-15T14:27:16.115Z,325
2022-10-15T14:28:16.812Z,336
2022-10-15T14:29:16.478Z,330
2022-10-15T14:30:17.184Z,323
2022-10-15T14:31:17.088Z,334
2022-10-15T14:32:16.205Z,336
2022-10-15T14:33:16.246Z,342
2022-10-15T14:34:17.023Z,341
2022-10-15T14:35:16.509Z,331
2022-10-15T14:36:15.796Z,332
2022-10-15T14:37:16.785Z,336
2022-10-15T14:38:16.309Z,330
2022-10-15T14:39:17.516Z,327